Time;durP1;ratioP1;P1;durP2;ratioP2;P2;SDS_P1;SDS_P2;PMS_P1;PMS_P2;Temp;Humidity;BMP_temperature;BMP_pressure;BME280_temperature;BME280_humidity;BME280_pressure;Samples;Min_cycle;Max_cycle;Signal;HPM_P1;HPM_P2
2022/10/20 00:00:22;;;;;;;37.35;24.85;;;11.20;79.70;;;;;;5035458;28;20314;-67
2022/10/20 00:02:48;;;;;;;42.42;25.67;;;11.30;78.60;;;;;;5038357;28;20025;-67
2022/10/20 00:05:14;;;;;;;29.77;20.85;;;11.30;80.90;;;;;;5035252;28;20022;-67
2022/10/20 00:07:39;;;;;;;24.83;18.27;;;11.10;81.60;;;;;;5037441;28;20037;-66
2022/10/20 00:10:05;;;;;;;29.20;19.45;;;11.10;80.70;;;;;;5034579;28;20060;-68
2022/10/20 00:12:31;;;;;;;30.33;20.40;;;11.00;80.60;;;;;;5035545;28;20040;-67
2022/10/20 00:14:57;;;;;;;29.58;19.90;;;10.90;82.50;;;;;;5036866;28;20029;-67
2022/10/20 00:17:22;;;;;;;33.97;24.17;;;10.70;81.00;;;;;;5035553;28;20032;-67
2022/10/20 00:19:48;;;;;;;35.65;25.10;;;10.80;77.30;;;;;;5038875;28;20060;-67
2022/10/20 00:22:14;;;;;;;42.35;25.52;;;11.00;76.60;;;;;;5040546;28;20025;-66
2022/10/20 00:24:39;;;;;;;32.13;22.98;;;11.10;77.30;;;;;;5037881;28;20347;-66
2022/10/20 00:27:05;;;;;;;35.97;23.30;;;11.10;77.70;;;;;;5039447;28;20036;-66
2022/10/20 00:29:31;;;;;;;29.58;21.92;;;11.20;76.80;;;;;;5041766;28;20417;-66
2022/10/20 00:31:56;;;;;;;35.75;24.38;;;11.30;77.70;;;;;;5037642;28;20095;-67
2022/10/20 00:34:22;;;;;;;30.67;21.73;;;11.30;78.80;;;;;;5035181;28;20084;-65
2022/10/20 00:36:48;;;;;;;37.65;24.52;;;11.20;79.70;;;;;;5037543;28;20116;-68
2022/10/20 00:39:13;;;;;;;37.95;25.85;;;11.10;79.50;;;;;;5036208;28;20038;-67
2022/10/20 00:41:39;;;;;;;36.50;24.00;;;11.10;77.90;;;;;;5044690;28;20017;-67
2022/10/20 00:44:42;;;;;;;38.25;24.45;;;11.20;78.20;;;;;;5034988;28;20349;-67
2022/10/20 00:47:16;;;;;;;34.10;24.88;;;11.20;78.30;;;;;;5039489;28;20047;-67
2022/10/20 00:49:42;;;;;;;35.80;25.08;;;11.20;77.10;;;;;;5043483;28;20422;-66
2022/10/20 00:52:09;;;;;;;39.65;25.83;;;11.40;76.50;;;;;;5031477;28;20248;-67
2022/10/20 00:54:35;;;;;;;31.77;23.48;;;11.40;78.10;;;;;;5035681;28;20041;-67
2022/10/20 00:57:02;;;;;;;37.60;27.17;;;11.30;78.40;;;;;;5034792;28;20033;-67
2022/10/20 00:59:32;;;;;;;50.33;31.83;;;11.30;78.80;;;;;;5036168;28;20043;-66
2022/10/20 01:02:00;;;;;;;45.20;32.08;;;11.20;78.80;;;;;;5036293;28;20026;-67
2022/10/20 01:04:28;;;;;;;48.20;31.85;;;11.20;77.70;;;;;;5040943;28;20032;-67
2022/10/20 01:06:55;;;;;;;43.78;30.77;;;11.20;77.70;;;;;;5038309;28;20033;-67
2022/10/20 01:09:20;;;;;;;39.40;27.58;;;11.10;77.80;;;;;;5036275;28;20036;-67
2022/10/20 01:12:18;;;;;;;35.90;27.10;;;11.10;77.30;;;;;;5037617;28;20022;-67
2022/10/20 01:14:57;;;;;;;41.20;28.08;;;11.20;76.70;;;;;;5043683;28;20028;-66
2022/10/20 01:17:35;;;;;;;47.40;32.40;;;11.20;77.80;;;;;;5036236;28;20030;-66
2022/10/20 01:20:26;;;;;;;46.95;31.02;;;11.20;79.30;;;;;;5040747;28;20029;-66
2022/10/20 01:23:27;;;;;;;39.00;26.80;;;11.10;79.00;;;;;;5036969;28;20029;-67
2022/10/20 01:26:07;;;;;;;40.45;27.52;;;11.10;78.60;;;;;;5030691;28;20025;-67
2022/10/20 01:28:45;;;;;;;42.33;27.40;;;11.00;78.10;;;;;;5033066;28;20033;-66
2022/10/20 01:31:25;;;;;;;43.65;29.30;;;11.00;78.30;;;;;;5034249;28;20029;-66
2022/10/20 01:34:03;;;;;;;57.80;34.85;;;11.00;78.10;;;;;;5037098;28;20322;-66
2022/10/20 01:36:36;;;;;;;47.65;33.83;;;10.90;78.10;;;;;;5042148;28;20107;-65
2022/10/20 01:39:09;;;;;;;57.97;36.97;;;10.90;75.70;;;;;;5034274;28;20026;-65
2022/10/20 01:42:22;;;;;;;56.00;34.80;;;11.00;75.60;;;;;;5035941;28;20029;-65
2022/10/20 01:44:51;;;;;;;45.28;31.52;;;11.10;74.60;;;;;;4972375;28;20367;-66
2022/10/20 01:47:19;;;;;;;55.97;36.47;;;11.10;74.60;;;;;;5024775;28;20137;-67
2022/10/20 01:49:47;;;;;;;51.65;34.35;;;11.20;74.20;;;;;;5043104;28;20326;-66
2022/10/20 01:52:17;;;;;;;47.63;33.50;;;11.10;76.90;;;;;;5014815;28;20426;-66
2022/10/20 01:54:42;;;;;;;48.40;33.17;;;11.10;75.80;;;;;;5029886;28;20048;-67
2022/10/20 01:57:46;;;;;;;43.25;30.17;;;11.00;76.70;;;;;;5034316;28;20041;-66
2022/10/20 02:00:14;;;;;;;48.88;32.97;;;10.90;76.00;;;;;;5030032;28;20034;-67
2022/10/20 02:02:43;;;;;;;41.72;29.27;;;10.80;77.00;;;;;;5030829;28;20034;-67
2022/10/20 02:05:30;;;;;;;55.92;35.75;;;10.80;75.30;;;;;;5031814;28;20101;-66
2022/10/20 02:08:06;;;;;;;50.47;33.00;;;10.90;73.30;;;;;;5031674;28;20367;-67
2022/10/20 02:10:40;;;;;;;56.03;36.75;;;11.00;73.60;;;;;;5027878;28;21386;-67
2022/10/20 02:13:09;;;;;;;48.13;33.50;;;11.10;74.30;;;;;;5034803;28;20060;-67
2022/10/20 02:15:37;;;;;;;53.75;33.33;;;11.10;73.90;;;;;;5037277;28;20041;-67
2022/10/20 02:18:07;;;;;;;66.20;38.67;;;11.10;74.90;;;;;;5048052;28;20040;-67
2022/10/20 02:20:36;;;;;;;45.10;32.00;;;11.10;75.60;;;;;;5037973;28;20410;-66
2022/10/20 02:23:04;;;;;;;52.13;34.20;;;11.10;74.00;;;;;;5036513;28;20022;-67
2022/10/20 02:25:31;;;;;;;64.45;36.97;;;11.10;74.40;;;;;;5034024;28;20017;-67
2022/10/20 02:27:59;;;;;;;55.58;35.03;;;11.20;75.30;;;;;;5038630;28;20055;-67
2022/10/20 02:30:24;;;;;;;49.17;33.00;;;11.10;76.10;;;;;;5049111;28;20254;-67
2022/10/20 02:32:51;;;;;;;66.35;37.78;;;11.00;73.90;;;;;;5038794;28;20302;-67
2022/10/20 02:35:28;;;;;;;51.40;34.45;;;11.00;74.80;;;;;;5029791;28;20104;-67
2022/10/20 02:37:56;;;;;;;68.38;37.30;;;11.00;74.90;;;;;;5040306;28;20044;-67
2022/10/20 02:40:22;;;;;;;61.03;37.05;;;11.00;74.40;;;;;;5034011;28;20094;-66
2022/10/20 02:42:48;;;;;;;44.80;29.65;;;11.00;74.70;;;;;;5039495;28;20018;-67
2022/10/20 02:45:14;;;;;;;53.65;33.10;;;10.90;75.00;;;;;;5034568;28;20101;-67
2022/10/20 02:47:40;;;;;;;47.10;31.55;;;10.90;75.60;;;;;;5038295;28;20356;-66
2022/10/20 02:50:07;;;;;;;48.72;31.77;;;10.80;74.50;;;;;;5035564;28;20025;-67
2022/10/20 02:52:33;;;;;;;47.88;31.40;;;10.90;73.00;;;;;;5033826;28;20044;-67
2022/10/20 02:54:58;;;;;;;58.75;33.13;;;10.90;73.20;;;;;;5033738;28;20033;-67
2022/10/20 02:57:24;;;;;;;60.85;34.25;;;11.00;74.40;;;;;;5034369;28;20036;-67
2022/10/20 02:59:53;;;;;;;50.88;31.27;;;10.90;74.90;;;;;;5036410;28;20097;-66
2022/10/20 03:02:18;;;;;;;52.05;32.42;;;10.80;74.60;;;;;;5033440;28;20446;-66
2022/10/20 03:04:44;;;;;;;56.92;33.00;;;10.80;74.10;;;;;;5019076;28;20073;-66
2022/10/20 03:07:10;;;;;;;43.58;29.38;;;10.80;73.80;;;;;;5045474;28;20029;-66
2022/10/20 03:09:36;;;;;;;58.33;34.35;;;10.70;73.50;;;;;;5036291;28;20061;-66
2022/10/20 03:12:02;;;;;;;41.78;28.40;;;10.70;73.60;;;;;;5041576;28;20339;-66
2022/10/20 03:14:28;;;;;;;47.97;29.60;;;10.70;72.40;;;;;;5048128;28;20425;-68
2022/10/20 03:16:53;;;;;;;62.20;34.42;;;10.70;72.10;;;;;;5027848;28;20084;-67
2022/10/20 03:19:19;;;;;;;57.42;32.70;;;10.70;73.40;;;;;;5031835;28;20082;-67
2022/10/20 03:21:45;;;;;;;50.22;31.80;;;10.70;72.30;;;;;;5039664;28;20034;-67
2022/10/20 03:24:11;;;;;;;49.30;30.67;;;10.70;72.50;;;;;;5034851;28;20025;-67
2022/10/20 03:26:37;;;;;;;51.97;31.90;;;10.70;72.70;;;;;;5032932;28;20025;-66
2022/10/20 03:29:03;;;;;;;45.42;28.75;;;10.70;73.00;;;;;;5035871;28;20029;-67
2022/10/20 03:31:28;;;;;;;50.67;29.25;;;10.70;71.90;;;;;;5022744;28;20030;-67
2022/10/20 03:33:54;;;;;;;52.40;29.52;;;10.70;73.00;;;;;;5033087;28;20032;-67
2022/10/20 03:36:20;;;;;;;41.65;25.25;;;10.70;72.10;;;;;;5038343;28;20036;-67
2022/10/20 03:38:45;;;;;;;54.05;31.77;;;10.70;71.10;;;;;;5003826;28;20481;-67
2022/10/20 03:41:11;;;;;;;55.30;31.90;;;10.70;73.10;;;;;;5032147;28;20026;-65
2022/10/20 03:43:40;;;;;;;47.00;28.48;;;10.60;73.20;;;;;;5039623;28;20477;-66
2022/10/20 03:46:08;;;;;;;51.75;29.27;;;10.60;73.40;;;;;;5034907;28;20425;-66
2022/10/20 03:48:35;;;;;;;43.88;26.42;;;10.60;72.00;;;;;;5036559;28;20087;-67
2022/10/20 03:51:03;;;;;;;52.72;28.88;;;10.50;72.70;;;;;;5038074;28;20112;-67
2022/10/20 03:53:28;;;;;;;49.53;28.25;;;10.60;71.90;;;;;;5041769;28;20318;-67
2022/10/20 03:55:54;;;;;;;46.05;27.60;;;10.60;71.80;;;;;;5036105;28;20232;-66
2022/10/20 03:58:20;;;;;;;47.13;28.15;;;10.70;71.70;;;;;;5035736;28;20417;-67
2022/10/20 04:00:47;;;;;;;47.03;27.08;;;10.70;71.30;;;;;;5048284;28;20063;-67
2022/10/20 04:03:13;;;;;;;45.80;27.42;;;10.80;71.30;;;;;;5045192;28;20410;-67
2022/10/20 04:05:39;;;;;;;45.17;26.30;;;10.80;71.20;;;;;;5035210;28;20036;-66
2022/10/20 04:08:04;;;;;;;46.50;25.63;;;10.90;71.60;;;;;;5037539;28;20060;-67
2022/10/20 04:10:30;;;;;;;42.55;25.38;;;10.90;72.70;;;;;;5043150;28;20349;-67
2022/10/20 04:13:02;;;;;;;40.25;24.20;;;10.90;73.30;;;;;;5035313;28;20029;-66
2022/10/20 04:15:28;;;;;;;42.35;24.75;;;10.90;73.30;;;;;;5036345;28;20025;-66
2022/10/20 04:17:53;;;;;;;39.33;23.80;;;11.00;74.10;;;;;;5031803;28;20055;-67
2022/10/20 04:20:19;;;;;;;36.80;23.05;;;10.90;75.30;;;;;;5036693;28;20183;-66
2022/10/20 04:22:45;;;;;;;36.47;22.60;;;11.00;75.30;;;;;;5036350;28;20048;-66
2022/10/20 04:25:11;;;;;;;35.00;22.15;;;11.00;75.80;;;;;;5036978;28;20051;-66
2022/10/20 04:27:38;;;;;;;35.22;20.13;;;11.00;76.30;;;;;;5043795;28;20409;-67
2022/10/20 04:30:04;;;;;;;32.33;21.20;;;11.10;77.90;;;;;;5053797;28;20021;-66
2022/10/20 04:32:30;;;;;;;30.17;19.73;;;11.00;79.20;;;;;;5043722;28;20083;-65
2022/10/20 04:34:58;;;;;;;31.50;20.40;;;11.10;79.60;;;;;;5038137;28;20026;-66
2022/10/20 04:37:24;;;;;;;32.08;20.02;;;11.10;81.40;;;;;;5032097;28;20096;-67
2022/10/20 04:39:50;;;;;;;35.15;20.60;;;11.00;81.80;;;;;;5037484;28;20124;-66
2022/10/20 04:42:17;;;;;;;28.75;18.38;;;11.00;81.40;;;;;;5041890;28;20025;-67
2022/10/20 04:44:43;;;;;;;26.85;18.55;;;11.00;82.10;;;;;;5041746;28;20096;-67
2022/10/20 04:47:09;;;;;;;32.97;20.38;;;11.00;81.80;;;;;;5042995;28;20057;-66
2022/10/20 04:49:35;;;;;;;23.70;16.48;;;11.00;83.20;;;;;;5041016;28;20382;-67
2022/10/20 04:52:00;;;;;;;24.05;15.57;;;11.00;82.10;;;;;;5038211;28;20044;-66
2022/10/20 04:54:26;;;;;;;26.77;16.52;;;11.00;82.40;;;;;;5035087;28;20433;-66
2022/10/20 04:56:52;;;;;;;24.08;16.20;;;11.10;83.30;;;;;;5042085;28;20025;-67
2022/10/20 04:59:18;;;;;;;23.80;15.43;;;11.10;83.50;;;;;;5042376;28;20018;-67
2022/10/20 05:01:43;;;;;;;22.85;16.30;;;11.10;84.50;;;;;;5032979;28;20029;-67
2022/10/20 05:04:10;;;;;;;27.52;16.02;;;11.00;84.00;;;;;;5036594;28;20028;-66
2022/10/20 05:06:36;;;;;;;25.27;16.30;;;11.10;83.80;;;;;;5036926;28;20029;-66
2022/10/20 05:09:05;;;;;;;25.08;16.20;;;11.10;84.20;;;;;;5033500;28;20044;-66
2022/10/20 05:11:34;;;;;;;23.13;15.82;;;11.10;84.50;;;;;;5027934;28;20104;-66
2022/10/20 05:13:59;;;;;;;23.95;15.52;;;11.10;85.20;;;;;;5040201;28;20322;-66
2022/10/20 05:16:26;;;;;;;28.80;18.15;;;11.10;85.50;;;;;;5042137;28;20052;-66
2022/10/20 05:18:53;;;;;;;21.65;15.40;;;11.10;85.60;;;;;;5049657;28;20028;-67
2022/10/20 05:21:24;;;;;;;22.52;15.40;;;11.10;83.90;;;;;;5057150;28;20025;-67
2022/10/20 05:24:02;;;;;;;23.52;13.88;;;11.10;85.00;;;;;;5053739;28;20322;-67
2022/10/20 05:26:33;;;;;;;21.30;14.10;;;11.20;85.10;;;;;;5039031;28;20080;-67
2022/10/20 05:29:03;;;;;;;18.05;12.07;;;11.30;86.70;;;;;;5050406;28;20063;-67
2022/10/20 05:31:28;;;;;;;17.85;12.82;;;11.40;88.50;;;;;;5038971;28;20021;-67
2022/10/20 05:33:56;;;;;;;16.58;12.27;;;11.50;89.70;;;;;;5039981;28;20028;-67
2022/10/20 05:36:25;;;;;;;18.45;12.23;;;11.50;90.50;;;;;;5038674;28;20044;-67
2022/10/20 05:38:52;;;;;;;18.30;13.48;;;11.60;90.80;;;;;;5042741;28;20130;-67
2022/10/20 05:41:30;;;;;;;18.10;13.30;;;11.60;91.20;;;;;;5046305;28;20112;-67
2022/10/20 05:44:00;;;;;;;17.73;12.98;;;11.70;91.60;;;;;;5039356;28;20026;-66
2022/10/20 05:46:29;;;;;;;21.48;13.75;;;11.70;91.80;;;;;;5045624;28;20162;-67
2022/10/20 05:48:57;;;;;;;20.83;13.48;;;11.70;91.90;;;;;;5037116;28;20313;-67
2022/10/20 05:51:26;;;;;;;20.38;13.18;;;11.60;91.60;;;;;;5047706;28;20068;-66
2022/10/20 05:53:54;;;;;;;15.88;12.05;;;11.60;92.00;;;;;;5036243;28;20041;-66
2022/10/20 05:56:21;;;;;;;19.42;12.30;;;11.70;92.20;;;;;;5017477;28;20067;-67
2022/10/20 05:58:47;;;;;;;15.48;11.18;;;11.80;92.70;;;;;;5040242;28;20316;-67
2022/10/20 06:01:16;;;;;;;18.25;12.60;;;11.80;93.10;;;;;;5054595;28;20032;-67
2022/10/20 06:03:46;;;;;;;21.25;11.93;;;11.90;93.60;;;;;;5048034;28;20108;-66
2022/10/20 06:06:12;;;;;;;18.52;12.90;;;11.80;93.20;;;;;;5022057;28;20017;-65
2022/10/20 06:08:37;;;;;;;17.23;11.90;;;11.80;92.80;;;;;;5043461;28;20405;-67
2022/10/20 06:11:07;;;;;;;15.85;11.50;;;11.80;92.40;;;;;;5035365;28;20025;-67
2022/10/20 06:13:33;;;;;;;18.13;11.75;;;11.80;93.30;;;;;;5042377;28;20032;-66
2022/10/20 06:16:19;;;;;;;20.42;11.38;;;11.90;93.80;;;;;;5056065;28;20052;-66
2022/10/20 06:18:44;;;;;;;16.23;11.18;;;12.00;95.00;;;;;;5054603;28;20029;-67
2022/10/20 06:21:31;;;;;;;15.40;10.50;;;12.00;94.80;;;;;;5055956;28;20032;-66
2022/10/20 06:23:59;;;;;;;15.55;10.63;;;12.10;95.10;;;;;;5044933;28;20032;-67
2022/10/20 06:26:31;;;;;;;16.80;11.77;;;12.20;95.50;;;;;;5034887;28;20033;-66
2022/10/20 06:28:57;;;;;;;16.80;12.30;;;12.20;95.10;;;;;;5045742;28;20044;-67
2022/10/20 06:31:26;;;;;;;21.52;12.20;;;12.20;94.70;;;;;;5056074;28;20029;-67
2022/10/20 06:33:53;;;;;;;24.83;14.88;;;12.10;94.70;;;;;;5050368;28;20037;-67
2022/10/20 06:36:20;;;;;;;35.83;21.02;;;12.20;94.90;;;;;;5054639;28;20385;-67
2022/10/20 06:38:46;;;;;;;26.27;16.80;;;12.20;94.70;;;;;;5036913;28;20029;-66
2022/10/20 06:41:14;;;;;;;19.75;13.05;;;12.20;94.00;;;;;;5035960;28;20025;-67
2022/10/20 06:43:40;;;;;;;17.95;12.07;;;12.20;95.10;;;;;;5048483;28;20409;-67
2022/10/20 06:46:09;;;;;;;15.25;10.40;;;12.30;95.70;;;;;;5035931;28;20033;-67
2022/10/20 06:48:35;;;;;;;19.30;11.05;;;12.40;97.60;;;;;;5047790;28;20336;-67
2022/10/20 06:51:04;;;;;;;15.00;10.65;;;12.50;97.60;;;;;;5055553;28;20025;-68
2022/10/20 06:53:30;;;;;;;15.18;10.60;;;12.50;97.80;;;;;;5044634;28;20038;-67
2022/10/20 06:56:00;;;;;;;18.55;11.63;;;12.50;97.10;;;;;;5034626;28;20033;-67
2022/10/20 06:58:27;;;;;;;18.10;11.70;;;12.50;97.10;;;;;;5034886;28;20034;-67
2022/10/20 07:01:03;;;;;;;23.27;14.88;;;12.50;97.00;;;;;;5018600;28;20032;-67
2022/10/20 07:03:30;;;;;;;19.98;14.07;;;12.50;96.80;;;;;;5033720;28;20075;-66
2022/10/20 07:05:59;;;;;;;17.70;12.13;;;12.60;96.80;;;;;;5040470;28;20025;-66
2022/10/20 07:08:29;;;;;;;14.68;11.55;;;12.50;96.80;;;;;;5033941;28;20140;-66
2022/10/20 07:11:03;;;;;;;17.58;11.88;;;12.50;96.40;;;;;;5041577;28;20341;-67
2022/10/20 07:13:30;;;;;;;18.08;12.50;;;12.60;97.10;;;;;;5055695;28;20029;-67
2022/10/20 07:15:57;;;;;;;13.27;10.65;;;12.70;98.00;;;;;;5046471;28;20051;-67
2022/10/20 07:18:25;;;;;;;13.07;9.50;;;12.80;98.00;;;;;;5045626;28;20041;-67
2022/10/20 07:20:54;;;;;;;15.50;9.82;;;13.00;98.00;;;;;;5057791;28;20052;-67
2022/10/20 07:23:20;;;;;;;12.25;8.82;;;13.10;98.00;;;;;;5047985;28;20341;-67
2022/10/20 07:25:45;;;;;;;16.30;9.52;;;13.20;98.00;;;;;;5033755;28;20024;-66
2022/10/20 07:28:11;;;;;;;17.42;9.82;;;13.30;98.00;;;;;;5036616;28;20865;-67
2022/10/20 07:30:41;;;;;;;12.15;7.93;;;13.50;98.00;;;;;;5044853;28;20109;-68
2022/10/20 07:33:07;;;;;;;12.98;8.80;;;13.80;98.00;;;;;;5037000;28;20044;-67
2022/10/20 07:35:34;;;;;;;10.40;7.78;;;13.90;98.00;;;;;;5036160;28;20386;-67
2022/10/20 07:38:00;;;;;;;11.27;8.20;;;14.00;98.00;;;;;;5019471;28;20032;-67
2022/10/20 07:40:26;;;;;;;12.90;7.97;;;14.10;98.00;;;;;;5035965;28;20104;-67
2022/10/20 07:42:53;;;;;;;10.20;7.18;;;14.00;98.00;;;;;;5037443;28;20477;-67
2022/10/20 07:45:18;;;;;;;17.23;7.30;;;14.10;98.00;;;;;;5039170;28;20096;-67
2022/10/20 07:47:44;;;;;;;12.90;5.85;;;14.10;98.00;;;;;;5035118;28;20120;-67
2022/10/20 07:50:11;;;;;;;14.88;5.90;;;14.30;98.00;;;;;;5039215;28;20029;-67
2022/10/20 07:52:38;;;;;;;10.10;5.00;;;14.70;98.00;;;;;;5036920;28;20057;-67
2022/10/20 07:55:04;;;;;;;19.77;7.30;;;15.20;98.00;;;;;;5037359;28;20036;-67
2022/10/20 07:57:31;;;;;;;9.20;4.50;;;16.10;96.30;;;;;;5046755;28;20317;-67
2022/10/20 07:59:57;;;;;;;7.25;3.78;;;17.10;94.30;;;;;;5058697;28;20360;-67
2022/10/20 08:02:22;;;;;;;7.22;3.78;;;17.70;92.20;;;;;;5038123;28;20159;-67
2022/10/20 08:04:49;;;;;;;6.10;3.28;;;18.30;87.90;;;;;;5038823;28;20104;-67
2022/10/20 08:07:15;;;;;;;10.15;4.32;;;18.80;88.80;;;;;;5048236;28;20046;-67
2022/10/20 08:09:41;;;;;;;9.02;3.78;;;19.20;87.10;;;;;;5058853;28;20025;-68
2022/10/20 08:12:07;;;;;;;5.90;3.20;;;19.40;88.20;;;;;;5043097;28;20037;-67
2022/10/20 08:14:35;;;;;;;6.45;3.17;;;20.20;85.60;;;;;;5038591;28;20029;-68
2022/10/20 08:17:04;;;;;;;5.78;2.70;;;20.80;84.30;;;;;;5043792;28;20414;-67
2022/10/20 08:19:30;;;;;;;6.15;2.80;;;21.10;82.10;;;;;;5058348;28;20024;-66
2022/10/20 08:21:55;;;;;;;5.85;2.95;;;21.10;81.60;;;;;;5045992;28;20056;-66
2022/10/20 08:24:21;;;;;;;5.35;2.75;;;20.60;82.10;;;;;;5038155;28;20026;-67
2022/10/20 08:26:47;;;;;;;5.45;2.88;;;20.40;83.40;;;;;;5044082;28;20021;-66
2022/10/20 08:29:13;;;;;;;9.40;3.47;;;20.80;82.30;;;;;;5056180;28;20112;-66
2022/10/20 08:31:39;;;;;;;7.97;2.58;;;20.80;81.30;;;;;;5047452;28;20056;-67
2022/10/20 08:34:04;;;;;;;5.88;2.70;;;21.10;80.20;;;;;;5037688;28;20116;-66
2022/10/20 08:36:30;;;;;;;9.55;3.20;;;21.00;82.20;;;;;;5037479;28;20024;-66
2022/10/20 08:38:59;;;;;;;6.00;2.58;;;20.90;82.00;;;;;;5039746;28;20504;-66
2022/10/20 08:41:35;;;;;;;4.50;2.63;;;21.10;81.20;;;;;;5034692;28;20444;-66
2022/10/20 08:44:03;;;;;;;5.57;2.30;;;21.70;79.90;;;;;;5046053;28;20098;-66
2022/10/20 08:46:33;;;;;;;7.57;2.40;;;22.40;78.20;;;;;;5039279;28;20052;-67
2022/10/20 08:49:00;;;;;;;6.53;2.40;;;23.20;76.90;;;;;;5041871;28;20456;-66
2022/10/20 08:51:38;;;;;;;6.47;3.63;;;23.10;74.80;;;;;;5053464;28;20044;-66
2022/10/20 08:54:10;;;;;;;7.72;3.22;;;22.60;77.70;;;;;;5057816;28;20401;-66
2022/10/20 08:56:36;;;;;;;6.50;3.05;;;22.50;78.70;;;;;;5052414;28;20425;-66
2022/10/20 08:59:02;;;;;;;6.55;2.70;;;23.20;76.90;;;;;;5053457;28;20025;-66
2022/10/20 09:01:33;;;;;;;6.93;2.15;;;23.60;73.70;;;;;;5037630;28;20032;-67
2022/10/20 09:04:08;;;;;;;11.55;3.05;;;23.40;75.90;;;;;;5048886;28;20032;-66
2022/10/20 09:06:34;;;;;;;7.03;2.45;;;22.80;75.30;;;;;;5057570;28;20021;-66
2022/10/20 09:09:01;;;;;;;6.40;2.35;;;22.10;75.90;;;;;;5055724;28;20033;-67
2022/10/20 09:11:33;;;;;;;9.43;2.67;;;22.00;75.50;;;;;;5043812;28;20025;-66
2022/10/20 09:13:59;;;;;;;8.57;5.13;;;21.80;75.80;;;;;;5037539;28;20060;-66
2022/10/20 09:16:28;;;;;;;10.00;5.38;;;21.00;82.90;;;;;;5045934;28;20138;-66
2022/10/20 09:19:00;;;;;;;10.30;5.53;;;20.30;84.80;;;;;;5040699;28;20061;-67
2022/10/20 09:21:27;;;;;;;8.55;6.03;;;19.70;87.20;;;;;;5045466;28;20036;-66
2022/10/20 09:23:59;;;;;;;10.88;5.55;;;19.30;88.40;;;;;;5057219;28;20021;-65
2022/10/20 09:26:35;;;;;;;7.80;5.95;;;18.60;90.20;;;;;;5043051;28;20025;-65
2022/10/20 09:29:10;;;;;;;10.18;5.72;;;18.60;90.10;;;;;;5041809;28;20040;-65
2022/10/20 09:31:39;;;;;;;8.40;5.22;;;18.50;90.00;;;;;;5045440;28;20086;-65
2022/10/20 09:34:29;;;;;;;10.65;6.15;;;18.20;90.60;;;;;;5037615;28;20029;-67
2022/10/20 09:37:02;;;;;;;8.85;5.80;;;17.80;92.20;;;;;;5046929;28;20437;-67
2022/10/20 09:39:31;;;;;;;12.05;5.82;;;17.80;92.60;;;;;;5036778;28;20303;-67
2022/10/20 09:42:11;;;;;;;8.55;6.20;;;17.90;93.30;;;;;;5051584;28;20029;-67
2022/10/20 09:45:03;;;;;;;10.50;7.20;;;18.00;92.70;;;;;;5056656;28;20021;-66
2022/10/20 09:47:29;;;;;;;10.30;6.95;;;18.20;92.30;;;;;;5045957;28;20112;-66
2022/10/20 09:50:03;;;;;;;11.63;6.53;;;18.10;92.30;;;;;;5046725;28;20045;-66
2022/10/20 09:52:33;;;;;;;13.90;6.85;;;18.10;92.90;;;;;;5044484;28;20053;-67
2022/10/20 09:55:02;;;;;;;13.30;8.57;;;18.10;92.40;;;;;;5047940;28;20041;-66
2022/10/20 09:57:28;;;;;;;15.85;8.55;;;18.00;92.60;;;;;;5054822;28;20021;-66
2022/10/20 09:59:56;;;;;;;12.20;8.32;;;18.00;93.10;;;;;;5056603;28;20103;-66
2022/10/20 10:02:21;;;;;;;14.02;7.70;;;18.10;93.30;;;;;;5052719;28;20036;-66
2022/10/20 10:04:49;;;;;;;12.07;7.70;;;18.20;92.10;;;;;;5054353;28;20021;-66
2022/10/20 10:07:21;;;;;;;12.13;7.35;;;18.50;92.10;;;;;;5051106;28;20321;-66
2022/10/20 10:10:15;;;;;;;11.20;6.95;;;19.00;90.90;;;;;;5053969;28;20029;-66
2022/10/20 10:12:54;;;;;;;11.77;6.07;;;19.10;89.00;;;;;;5052155;28;20083;-67
2022/10/20 10:15:27;;;;;;;12.32;7.78;;;19.20;90.20;;;;;;5037440;28;20029;-66
2022/10/20 10:17:56;;;;;;;10.33;7.10;;;19.10;88.90;;;;;;5054593;28;20029;-66
2022/10/20 10:20:28;;;;;;;8.98;6.18;;;19.00;88.90;;;;;;5054640;28;20021;-67
2022/10/20 10:23:18;;;;;;;12.15;7.45;;;18.80;89.50;;;;;;5031590;28;20357;-67
2022/10/20 10:25:43;;;;;;;10.23;7.20;;;18.70;89.50;;;;;;5034168;28;20021;-66
2022/10/20 10:28:30;;;;;;;11.05;7.40;;;18.50;90.50;;;;;;5036152;28;20036;-66
2022/10/20 10:31:16;;;;;;;10.32;6.82;;;18.40;91.10;;;;;;5036206;28;20026;-66
2022/10/20 10:33:42;;;;;;;11.43;6.57;;;18.30;91.60;;;;;;5035957;28;20040;-66
2022/10/20 10:36:27;;;;;;;11.55;7.43;;;18.20;92.50;;;;;;5036153;28;20029;-66
2022/10/20 10:38:53;;;;;;;14.60;6.93;;;18.00;93.00;;;;;;5034502;28;20436;-66
2022/10/20 10:41:40;;;;;;;14.93;6.68;;;17.70;94.20;;;;;;5034726;28;20025;-66
2022/10/20 10:44:29;;;;;;;14.57;6.55;;;17.70;94.70;;;;;;5035717;28;20022;-66
2022/10/20 10:47:25;;;;;;;9.93;6.30;;;17.80;94.20;;;;;;5035696;28;20048;-66
2022/10/20 10:50:15;;;;;;;10.60;5.93;;;17.80;94.30;;;;;;5035983;28;20311;-66
2022/10/20 10:53:03;;;;;;;9.63;5.50;;;17.80;94.80;;;;;;5035032;28;20048;-66
2022/10/20 10:55:37;;;;;;;8.75;5.30;;;17.70;95.00;;;;;;5038897;28;20022;-66
2022/10/20 10:58:16;;;;;;;9.88;5.10;;;17.70;95.40;;;;;;5039906;28;20029;-66
2022/10/20 11:01:02;;;;;;;8.50;4.53;;;17.80;95.70;;;;;;5040018;28;20433;-66
2022/10/20 11:03:36;;;;;;;14.13;4.93;;;17.90;95.60;;;;;;5040040;28;20406;-67
2022/10/20 11:06:09;;;;;;;10.63;4.45;;;18.10;95.40;;;;;;5039949;28;20037;-66
2022/10/20 11:08:45;;;;;;;9.07;3.95;;;18.20;95.30;;;;;;5039037;28;20052;-66
2022/10/20 11:11:26;;;;;;;6.72;3.90;;;18.40;95.10;;;;;;5038697;28;20056;-66
2022/10/20 11:14:14;;;;;;;6.47;3.50;;;18.80;94.50;;;;;;5039231;28;20032;-66
2022/10/20 11:17:00;;;;;;;7.57;3.65;;;19.20;93.80;;;;;;5035660;28;20036;-67
2022/10/20 11:19:43;;;;;;;9.00;3.60;;;19.30;92.60;;;;;;5058469;28;20033;-66
2022/10/20 11:22:21;;;;;;;7.23;3.77;;;19.30;92.10;;;;;;5057482;28;20025;-65
2022/10/20 11:25:24;;;;;;;8.20;3.90;;;19.20;92.60;;;;;;5052450;28;20328;-66
2022/10/20 11:27:50;;;;;;;10.48;3.67;;;19.30;92.00;;;;;;5042655;28;20045;-66
2022/10/20 11:30:20;;;;;;;6.47;3.58;;;19.80;91.00;;;;;;5056852;28;20064;-66
2022/10/20 11:33:04;;;;;;;6.80;3.33;;;20.10;90.50;;;;;;5039268;28;20421;-66
2022/10/20 11:35:49;;;;;;;4.75;2.88;;;20.20;89.60;;;;;;5046725;28;20409;-66
2022/10/20 11:38:23;;;;;;;8.45;3.72;;;20.20;89.60;;;;;;5046376;28;20041;-66
2022/10/20 11:41:23;;;;;;;6.43;3.40;;;20.40;90.00;;;;;;5046664;28;20358;-66
2022/10/20 11:44:13;;;;;;;6.75;3.63;;;20.30;89.90;;;;;;5044015;28;20103;-66
2022/10/20 11:46:44;;;;;;;6.18;3.40;;;20.10;90.60;;;;;;5038057;28;20348;-67
2022/10/20 11:49:13;;;;;;;11.02;3.45;;;19.80;91.90;;;;;;5038831;28;20083;-67
2022/10/20 11:52:25;;;;;;;9.73;3.75;;;19.60;93.70;;;;;;5024934;28;20076;-67
2022/10/20 11:54:59;;;;;;;10.45;3.78;;;19.60;93.50;;;;;;5015045;28;20379;-66
2022/10/20 11:57:37;;;;;;;17.23;3.97;;;19.60;93.10;;;;;;5039531;28;20072;-66
2022/10/20 12:00:29;;;;;;;16.42;3.75;;;19.60;92.90;;;;;;5056211;28;20314;-66
2022/10/20 12:03:11;;;;;;;8.18;3.53;;;19.60;93.00;;;;;;5027359;28;20112;-67
2022/10/20 12:06:01;;;;;;;12.27;3.00;;;19.70;91.30;;;;;;5037539;28;20036;-66
2022/10/20 12:08:42;;;;;;;11.30;3.20;;;19.60;91.60;;;;;;5046604;28;20112;-66
2022/10/20 12:11:26;;;;;;;7.63;3.15;;;19.80;90.10;;;;;;5057323;28;20025;-66
2022/10/20 12:14:14;;;;;;;10.32;3.00;;;20.10;89.00;;;;;;5045133;28;20298;-66
2022/10/20 12:16:52;;;;;;;8.38;3.95;;;20.30;89.50;;;;;;5038558;28;20033;-66
2022/10/20 12:19:29;;;;;;;10.65;3.50;;;20.00;91.60;;;;;;5039444;28;20317;-65
2022/10/20 12:22:12;;;;;;;8.73;3.70;;;19.80;93.00;;;;;;5038019;28;20025;-65
2022/10/20 12:24:39;;;;;;;9.73;3.60;;;19.80;93.10;;;;;;5037361;28;20428;-65
2022/10/20 12:27:07;;;;;;;6.53;3.55;;;19.70;91.40;;;;;;5037176;28;20268;-65
2022/10/20 12:29:33;;;;;;;7.93;3.92;;;19.70;91.80;;;;;;5037735;28;20028;-67
2022/10/20 12:32:33;;;;;;;9.90;3.10;;;19.70;91.50;;;;;;5038238;28;20025;-67
2022/10/20 12:35:01;;;;;;;6.32;3.40;;;19.60;92.50;;;;;;5037394;28;20036;-66
2022/10/20 12:37:33;;;;;;;7.22;3.45;;;19.50;92.50;;;;;;5038179;28;20030;-67
2022/10/20 12:40:07;;;;;;;6.82;4.00;;;19.50;93.40;;;;;;5055322;28;20037;-67
2022/10/20 12:42:38;;;;;;;6.65;3.30;;;19.30;93.90;;;;;;5057240;28;20021;-66
2022/10/20 12:45:43;;;;;;;9.02;3.10;;;19.30;93.60;;;;;;5018476;28;20117;-66
2022/10/20 12:48:21;;;;;;;8.68;3.47;;;19.30;95.20;;;;;;5038067;28;20041;-67
2022/10/20 12:50:49;;;;;;;6.05;3.20;;;19.60;95.10;;;;;;5035662;28;20052;-67
2022/10/20 12:53:18;;;;;;;7.80;4.10;;;19.70;93.20;;;;;;5048516;28;20115;-66